Time;durP1;ratioP1;P1;durP2;ratioP2;P2;SDS_P1;SDS_P2;PMS_P1;PMS_P2;Temp;Humidity;BMP_temperature;BMP_pressure;BME280_temperature;BME280_humidity;BME280_pressure;Samples;Min_cycle;Max_cycle;Signal;HPM_P1;HPM_P2
2022/12/01 00:00:27;;;;;;;;;34.67;27.33;;;;;8.29;75.92;101838.28;5049933;28;45540;-84
2022/12/01 00:02:52;;;;;;;;;35.33;33.00;;;;;8.51;75.86;101903.41;5050155;28;46487;-85
2022/12/01 00:05:17;;;;;;;;;36.33;27.33;;;;;8.01;75.89;101804.25;5050125;28;44962;-82
2022/12/01 00:07:43;;;;;;;;;36.67;27.67;;;;;8.44;75.71;101896.00;5050036;28;49918;-86
2022/12/01 00:10:25;;;;;;;;;38.00;34.33;;;;;8.10;75.98;101835.34;5048877;28;46351;-86
2022/12/01 00:12:55;;;;;;;;;44.25;37.75;;;;;8.46;76.18;101895.25;5050745;28;45344;-85
2022/12/01 00:15:22;;;;;;;;;33.50;29.50;;;;;8.60;76.24;101914.44;5049725;28;45119;-85
2022/12/01 00:17:48;;;;;;;;;41.00;33.50;;;;;7.95;75.98;101804.78;5050072;28;45095;-86
2022/12/01 00:20:15;;;;;;;;;40.75;34.00;;;;;8.56;76.11;101916.78;5049580;28;45916;-87
2022/12/01 00:22:45;;;;;;;;;37.25;34.50;;;;;8.37;76.02;101886.81;5069867;28;45411;-86
2022/12/01 00:25:12;;;;;;;;;47.00;35.75;;;;;8.06;75.99;101838.56;5069425;28;45229;-85
2022/12/01 00:27:38;;;;;;;;;39.25;36.25;;;;;8.06;75.84;101829.00;5070351;28;45172;-84
2022/12/01 00:30:05;;;;;;;;;36.25;32.25;;;;;8.07;76.16;101825.56;5069556;28;45132;-86
2022/12/01 00:32:30;;;;;;;;;41.50;34.50;;;;;7.87;76.10;101798.16;5069239;28;45685;-86
2022/12/01 00:34:56;;;;;;;;;44.00;35.50;;;;;8.08;76.19;101845.75;5062064;28;45174;-85
2022/12/01 00:37:21;;;;;;;;;46.00;34.00;;;;;8.20;75.92;101854.34;5049220;28;45215;-85
2022/12/01 00:39:47;;;;;;;;;46.00;36.67;;;;;8.12;76.29;101863.41;5049711;28;45725;-85
2022/12/01 00:42:12;;;;;;;;;34.67;27.67;;;;;7.81;76.18;101807.34;5049674;28;45029;-84
2022/12/01 00:44:37;;;;;;;;;38.25;32.00;;;;;7.87;76.19;101821.72;5049349;28;45343;-84
2022/12/01 00:47:02;;;;;;;;;33.75;29.50;;;;;7.88;76.20;101827.84;5049948;28;45255;-86
2022/12/01 00:49:28;;;;;;;;;50.75;39.00;;;;;8.31;76.33;101906.47;5030813;28;46573;-85
2022/12/01 00:51:53;;;;;;;;;39.25;34.25;;;;;7.85;76.32;101832.91;5049371;28;44986;-85
2022/12/01 00:54:18;;;;;;;;;33.25;29.00;;;;;7.64;76.28;101793.22;5049221;28;45010;-85
2022/12/01 00:56:44;;;;;;;;;33.33;29.33;;;;;8.25;76.32;101915.75;5049604;28;45111;-86
2022/12/01 00:59:10;;;;;;;;;43.25;36.25;;;;;7.74;76.23;101817.44;5048894;28;45637;-86
2022/12/01 01:01:35;;;;;;;;;40.75;34.75;;;;;7.78;76.15;101835.94;5049235;28;45539;-85
2022/12/01 01:04:01;;;;;;;;;42.00;35.67;;;;;7.68;76.38;101814.41;5049149;28;45067;-85
2022/12/01 01:06:26;;;;;;;;;41.00;31.50;;;;;7.69;76.33;101826.72;5049072;28;45019;-84
2022/12/01 01:08:51;;;;;;;;;33.67;31.00;;;;;8.11;76.51;101906.13;5048573;28;56756;-84
2022/12/01 01:11:17;;;;;;;;;43.67;34.67;;;;;7.67;76.35;101830.03;5049051;28;45048;-85
2022/12/01 01:13:42;;;;;;;;;36.25;30.75;;;;;7.74;76.46;101846.22;5049119;28;45627;-85
2022/12/01 01:16:20;;;;;;;;;44.00;31.25;;;;;8.15;76.53;101922.94;5049375;28;45030;-84
2022/12/01 01:18:46;;;;;;;;;40.75;34.50;;;;;7.87;76.44;101868.84;5048699;28;45472;-85
2022/12/01 01:21:14;;;;;;;;;42.25;33.75;;;;;7.45;76.30;101799.00;5056293;28;45153;-84
2022/12/01 01:23:40;;;;;;;;;42.25;35.75;;;;;8.07;76.48;101918.94;5069302;28;45037;-85
2022/12/01 01:26:13;;;;;;;;;40.75;34.25;;;;;7.54;76.26;101820.50;5068341;28;45077;-85
2022/12/01 01:28:40;;;;;;;;;38.75;35.50;;;;;7.68;76.33;101855.38;5050281;28;47563;-84
2022/12/01 01:31:10;;;;;;;;;38.50;34.25;;;;;8.04;76.50;101926.59;5068914;28;45554;-85
2022/12/01 01:33:36;;;;;;;;;36.25;29.75;;;;;7.64;76.39;101862.16;5069348;28;45242;-85
2022/12/01 01:36:02;;;;;;;;;41.00;34.75;;;;;7.75;76.40;101876.81;5052165;28;45050;-85
2022/12/01 01:38:28;;;;;;;;;37.00;29.25;;;;;7.97;76.43;101922.66;5048024;28;45418;-83
2022/12/01 01:40:54;;;;;;;;;39.50;30.50;;;;;7.79;76.70;101892.72;5030471;28;45230;-85
2022/12/01 01:43:49;;;;;;;;;35.00;30.75;;;;;7.95;76.40;101927.81;5048555;28;45284;-85
2022/12/01 01:46:26;;;;;;;;;38.50;28.25;;;;;7.95;76.32;101937.38;5048201;28;45015;-82
2022/12/01 01:49:04;;;;;;;;;36.00;30.50;;;;;7.91;76.36;101932.75;5048258;28;45141;-86
2022/12/01 01:51:39;;;;;;;;;39.50;32.25;;;;;7.30;76.35;101826.78;5047951;28;44985;-84
2022/12/01 01:54:30;;;;;;;;;30.75;25.50;;;;;7.75;76.47;101920.41;5048334;28;45228;-84
2022/12/01 01:56:56;;;;;;;;;36.25;28.50;;;;;7.65;76.54;101897.06;5048343;28;45073;-85
2022/12/01 01:59:28;;;;;;;;;35.00;31.00;;;;;7.73;76.46;101901.06;5048244;28;45182;-85
2022/12/01 02:02:04;;;;;;;;;27.75;26.50;;;;;7.98;76.31;101935.88;5048163;28;45439;-83
2022/12/01 02:04:33;;;;;;;;;42.50;28.75;;;;;7.83;76.21;101893.03;5030111;28;45110;-84
2022/12/01 02:06:59;;;;;;;;;27.75;26.75;;;;;8.11;76.14;101939.25;5048713;28;45154;-82
2022/12/01 02:09:24;;;;;;;;;32.75;29.25;;;;;8.16;76.13;101951.84;5047823;28;45592;-83
2022/12/01 02:12:02;;;;;;;;;35.25;30.00;;;;;8.24;76.02;101932.28;5048352;28;45266;-83
2022/12/01 02:15:04;;;;;;;;;39.50;30.00;;;;;8.32;75.82;101931.84;5048319;28;45103;-82
2022/12/01 02:17:58;;;;;;;;;35.25;32.75;;;;;8.33;75.55;101923.22;5047570;28;45278;-85
2022/12/01 02:21:01;;;;;;;;;35.25;28.50;;;;;8.43;75.55;101923.91;5030388;28;48018;-84
2022/12/01 02:23:40;;;;;;;;;38.50;31.25;;;;;8.23;75.39;101888.59;5066705;28;45236;-83
2022/12/01 02:26:38;;;;;;;;;36.00;28.00;;;;;8.51;75.57;101924.38;5068156;28;44955;-86
2022/12/01 02:29:06;;;;;;;;;35.00;29.50;;;;;8.51;75.28;101916.50;5068394;28;45112;-86
2022/12/01 02:32:03;;;;;;;;;37.00;30.75;;;;;8.51;75.04;101917.41;5067418;28;46030;-82
2022/12/01 02:34:38;;;;;;;;;43.00;30.75;;;;;8.53;75.07;101923.66;5037468;28;45484;-86
2022/12/01 02:37:03;;;;;;;;;34.75;29.25;;;;;8.56;74.74;101914.16;5048365;28;45345;-82
2022/12/01 02:39:33;;;;;;;;;39.33;32.67;;;;;8.42;74.76;101894.97;5047894;28;45198;-83
2022/12/01 02:42:48;;;;;;;;;36.50;31.50;;;;;8.35;74.70;101890.16;5046975;28;45154;-87
2022/12/01 02:45:13;;;;;;;;;33.00;30.00;;;;;8.60;74.59;101916.16;5047563;28;45067;-86
2022/12/01 02:47:40;;;;;;;;;37.25;32.00;;;;;8.18;74.71;101824.53;5048212;28;45060;-86
2022/12/01 02:50:08;;;;;;;;;41.50;34.50;;;;;8.46;74.13;101883.88;5048262;28;45190;-85
2022/12/01 02:52:33;;;;;;;;;34.50;28.00;;;;;7.93;74.15;101789.78;5047403;28;45361;-85
2022/12/01 02:54:59;;;;;;;;;36.25;27.50;;;;;8.34;74.13;101859.53;5047942;28;45120;-86
2022/12/01 02:57:24;;;;;;;;;25.00;21.50;;;;;8.22;73.89;101844.84;5047443;28;45101;-86
2022/12/01 02:59:54;;;;;;;;;32.50;27.25;;;;;8.60;73.85;101905.69;5047553;28;45211;-85
2022/12/01 03:02:42;;;;;;;;;31.50;25.25;;;;;8.69;73.86;101915.00;5049613;28;45277;-85
2022/12/01 03:05:34;;;;;;;;;28.50;22.50;;;;;8.68;73.64;101914.94;5049830;28;45645;-85
2022/12/01 03:08:05;;;;;;;;;28.75;24.00;;;;;8.67;73.46;101914.03;5050900;28;45103;-85
2022/12/01 03:10:48;;;;;;;;;29.50;25.00;;;;;8.71;73.50;101916.00;5051043;28;45152;-85
2022/12/01 03:13:31;;;;;;;;;32.50;25.75;;;;;8.25;73.52;101826.72;5050903;28;46420;-85
2022/12/01 03:16:04;;;;;;;;;32.75;29.75;;;;;7.95;73.46;101768.13;5050477;28;45443;-86
2022/12/01 03:18:47;;;;;;;;;29.75;25.50;;;;;8.74;73.58;101907.44;5050729;28;45184;-85
2022/12/01 03:21:29;;;;;;;;;28.50;25.25;;;;;8.76;73.47;101906.69;5050514;28;45248;-85
2022/12/01 03:24:08;;;;;;;;;36.00;29.75;;;;;8.74;73.51;101907.44;5050638;28;45391;-86
2022/12/01 03:26:36;;;;;;;;;36.75;27.50;;;;;8.43;73.32;101861.03;5050142;28;45214;-85
2022/12/01 03:29:09;;;;;;;;;30.75;29.25;;;;;8.15;73.55;101815.59;5050814;28;45518;-85
2022/12/01 03:31:41;;;;;;;;;30.25;26.25;;;;;8.50;73.64;101881.53;5050291;28;45275;-86
2022/12/01 03:34:19;;;;;;;;;33.25;22.75;;;;;8.44;73.49;101889.03;5050731;28;45678;-86
2022/12/01 03:36:48;;;;;;;;;36.50;29.00;;;;;8.04;73.51;101803.56;5050393;28;45703;-86
2022/12/01 03:39:21;;;;;;;;;32.00;28.25;;;;;8.44;73.58;101883.78;5050026;28;45171;-86
2022/12/01 03:41:52;;;;;;;;;30.00;27.75;;;;;7.67;73.46;101768.13;5050647;28;45427;-86
2022/12/01 03:44:24;;;;;;;;;30.25;25.75;;;;;8.21;73.75;101879.72;5049875;28;46033;-85
2022/12/01 03:46:59;;;;;;;;;31.75;28.50;;;;;8.02;74.05;101837.47;5050048;28;45018;-86
2022/12/01 03:49:25;;;;;;;;;33.25;28.75;;;;;8.34;73.96;101904.06;5050603;28;45195;-85
2022/12/01 03:52:14;;;;;;;;;33.00;29.25;;;;;8.20;74.25;101885.75;5050614;28;45074;-84
2022/12/01 03:54:39;;;;;;;;;35.75;31.75;;;;;8.42;74.15;101919.47;5049728;28;45382;-85
2022/12/01 03:57:12;;;;;;;;;40.50;32.25;;;;;7.93;74.00;101821.19;5049701;28;45176;-85
2022/12/01 03:59:40;;;;;;;;;34.50;28.75;;;;;8.31;74.11;101909.09;5049960;28;45131;-86
2022/12/01 04:02:06;;;;;;;;;35.50;30.25;;;;;8.04;73.96;101846.34;5049880;28;45499;-81
2022/12/01 04:04:32;;;;;;;;;40.00;33.50;;;;;8.15;74.30;101862.72;5045593;28;45973;-83
2022/12/01 04:06:57;;;;;;;;;32.00;29.75;;;;;8.12;74.13;101844.19;5066834;28;45198;-85
2022/12/01 04:09:22;;;;;;;;;40.25;34.50;;;;;8.28;74.14;101881.91;5067162;28;45188;-85
2022/12/01 04:14:31;;;;;;;;;42.75;36.00;;;;;8.38;74.18;101911.34;5049168;28;45054;-84
2022/12/01 04:16:57;;;;;;;;;40.00;33.25;;;;;8.30;74.13;101889.84;5049863;28;45155;-85
2022/12/01 04:19:22;;;;;;;;;40.33;32.33;;;;;8.32;74.26;101903.03;5067775;28;45109;-83
2022/12/01 04:21:47;;;;;;;;;36.67;29.00;;;;;8.23;74.34;101906.91;5064444;28;45066;-85
2022/12/01 04:24:14;;;;;;;;;34.00;29.75;;;;;8.06;74.32;101865.66;5050119;28;45174;-84
2022/12/01 04:26:40;;;;;;;;;46.50;37.00;;;;;7.81;74.37;101823.06;5049314;28;45183;-84
2022/12/01 04:29:08;;;;;;;;;38.50;35.25;;;;;8.09;74.56;101876.34;5059494;28;45231;-82
2022/12/01 04:31:35;;;;;;;;;41.25;35.00;;;;;7.72;74.60;101799.81;5069317;28;45312;-82
2022/12/01 04:34:01;;;;;;;;;43.75;35.75;;;;;7.73;74.53;101805.19;5052282;28;45946;-86
2022/12/01 04:36:29;;;;;;;;;47.75;39.00;;;;;8.26;74.53;101898.31;5049576;28;45255;-84
2022/12/01 04:38:55;;;;;;;;;34.25;31.75;;;;;8.20;74.48;101877.91;5050211;28;45189;-84
2022/12/01 04:41:20;;;;;;;;;30.33;25.00;;;;;7.81;74.52;101825.69;5031531;28;47331;-85
2022/12/01 04:43:45;;;;;;;;;33.00;26.75;;;;;7.95;74.38;101835.31;5049450;28;45554;-84
2022/12/01 04:46:11;;;;;;;;;35.33;29.00;;;;;7.65;74.59;101790.69;5048772;28;51649;-82
2022/12/01 04:48:38;;;;;;;;;32.25;27.25;;;;;8.33;74.51;101904.88;5049906;28;45258;-82
2022/12/01 04:51:05;;;;;;;;;39.75;32.25;;;;;8.09;74.44;101876.34;5049621;28;45236;-83
2022/12/01 04:53:31;;;;;;;;;38.50;30.75;;;;;7.96;74.24;101851.09;5049146;28;47504;-81
2022/12/01 04:55:58;;;;;;;;;32.00;25.75;;;;;8.23;74.70;101896.44;5049747;28;45176;-86
2022/12/01 04:58:23;;;;;;;;;29.75;24.50;;;;;7.76;74.48;101807.97;5048969;28;45193;-84
2022/12/01 05:00:49;;;;;;;;;38.00;32.33;;;;;8.25;74.48;101904.38;5049633;28;46159;-86
2022/12/01 05:03:14;;;;;;;;;33.00;22.67;;;;;7.97;74.34;101863.38;5048821;28;55058;-85
2022/12/01 05:05:39;;;;;;;;;39.75;31.25;;;;;8.25;74.18;101914.84;5048799;28;45157;-84
2022/12/01 05:08:05;;;;;;;;;38.33;35.67;;;;;8.03;74.49;101875.97;5049392;28;45112;-85
2022/12/01 05:10:30;;;;;;;;;38.00;32.00;;;;;7.90;74.24;101858.56;5049043;28;44965;-84
2022/12/01 05:12:57;;;;;;;;;33.67;27.33;;;;;7.63;74.28;101809.72;5049291;28;58668;-84
2022/12/01 05:15:23;;;;;;;;;34.50;29.25;;;;;7.91;74.40;101885.66;5048678;28;45106;-85
2022/12/01 05:17:48;;;;;;;;;37.75;31.50;;;;;7.71;74.53;101847.75;5049255;28;45085;-85
2022/12/01 05:23:03;;;;;;;;;42.75;32.25;;;;;7.92;74.85;101884.81;5029610;28;45466;-85
2022/12/01 05:25:29;;;;;;;;;39.75;31.25;;;;;7.45;74.67;101797.28;5028340;28;45270;-85
2022/12/01 05:27:54;;;;;;;;;50.00;37.25;;;;;8.07;74.75;101909.34;5043783;28;45187;-84
2022/12/01 05:30:19;;;;;;;;;40.00;30.00;;;;;7.82;74.55;101872.88;5048469;28;45352;-86
2022/12/01 05:32:45;;;;;;;;;34.67;33.67;;;;;7.68;74.64;101840.59;5029966;28;47880;-86
2022/12/01 05:35:10;;;;;;;;;34.00;30.33;;;;;7.63;74.73;101835.88;5048926;28;48327;-85
2022/12/01 05:37:35;;;;;;;;;34.50;31.00;;;;;7.77;74.46;101853.34;5050400;28;44939;-86
2022/12/01 05:40:01;;;;;;;;;44.00;38.00;;;;;7.88;74.48;101861.88;5063994;28;45297;-85
2022/12/01 05:42:26;;;;;;;;;33.00;30.33;;;;;7.74;74.41;101840.09;5054300;28;48485;-85
2022/12/01 05:44:51;;;;;;;;;34.50;30.50;;;;;8.15;74.33;101920.34;5053451;28;45200;-83
2022/12/01 05:47:17;;;;;;;;;35.00;30.75;;;;;8.09;74.43;101892.06;5070130;28;45098;-85
2022/12/01 05:49:42;;;;;;;;;33.00;28.00;;;;;7.95;74.50;101871.94;5061736;28;45155;-84
2022/12/01 05:52:07;;;;;;;;;43.67;32.67;;;;;7.92;74.50;101861.28;5047877;28;52998;-83
2022/12/01 05:54:33;;;;;;;;;33.67;28.67;;;;;7.63;74.29;101800.13;5048397;28;44882;-84
2022/12/01 05:56:58;;;;;;;;;35.00;28.67;;;;;7.45;74.19;101773.75;5048389;28;45247;-84
2022/12/01 05:59:23;;;;;;;;;36.33;31.00;;;;;7.44;74.13;101785.03;5048228;28;44978;-85
2022/12/01 06:01:48;;;;;;;;;40.50;30.25;;;;;8.06;74.28;101884.00;5038453;28;47395;-85
2022/12/01 06:04:14;;;;;;;;;36.00;29.00;;;;;8.08;74.46;101905.97;5068586;28;45162;-85
2022/12/01 06:06:39;;;;;;;;;40.50;32.00;;;;;7.78;74.09;101846.41;5068536;28;45040;-85
2022/12/01 06:09:04;;;;;;;;;35.67;33.33;;;;;7.55;74.04;101805.72;5068622;28;53483;-85
2022/12/01 06:11:30;;;;;;;;;33.00;27.33;;;;;7.76;74.06;101831.50;5068013;28;50982;-86
2022/12/01 06:13:55;;;;;;;;;43.00;34.67;;;;;8.22;74.06;101914.66;5068214;28;45063;-84
2022/12/01 06:16:20;;;;;;;;;37.33;32.67;;;;;7.72;74.00;101826.00;5067454;28;45034;-85
2022/12/01 06:18:46;;;;;;;;;40.00;32.33;;;;;7.63;73.85;101808.00;5068076;28;45112;-85
2022/12/01 06:21:11;;;;;;;;;31.67;24.00;;;;;7.66;73.87;101813.44;5068246;28;46036;-87
2022/12/01 06:23:36;;;;;;;;;34.75;30.75;;;;;7.80;73.81;101844.81;5068406;28;44974;-85
2022/12/01 06:26:04;;;;;;;;;33.75;29.25;;;;;7.81;74.00;101842.28;5068087;28;45158;-83
2022/12/01 06:28:29;;;;;;;;;36.75;30.00;;;;;7.97;73.84;101867.69;5067512;28;45552;-84
2022/12/01 06:30:55;;;;;;;;;37.75;29.25;;;;;8.14;73.83;101901.09;5058752;28;45566;-83
2022/12/01 06:33:20;;;;;;;;;35.00;28.33;;;;;8.24;73.74;101915.69;5046627;28;45274;-83
2022/12/01 06:35:45;;;;;;;;;33.50;28.25;;;;;8.08;73.71;101891.94;5048963;28;45416;-84
2022/12/01 06:38:11;;;;;;;;;34.00;31.00;;;;;7.91;73.64;101865.59;5053458;28;45511;-83
2022/12/01 06:40:36;;;;;;;;;36.50;28.25;;;;;8.22;73.66;101920.78;5070452;28;45294;-83
2022/12/01 06:43:01;;;;;;;;;37.00;31.00;;;;;8.08;73.72;101905.03;5048254;28;45417;-83
2022/12/01 06:45:28;;;;;;;;;39.75;33.50;;;;;8.08;73.70;101899.78;5052801;28;45178;-82
2022/12/01 06:47:54;;;;;;;;;36.75;33.00;;;;;8.02;73.79;101884.59;5054288;28;45099;-82
2022/12/01 06:50:20;;;;;;;;;42.25;34.50;;;;;7.85;73.59;101839.06;5052774;28;46249;-83
2022/12/01 06:52:45;;;;;;;;;38.75;33.75;;;;;7.86;73.67;101850.44;5053791;28;45499;-83
2022/12/01 06:55:11;;;;;;;;;41.50;34.50;;;;;7.65;73.77;101821.19;5054016;28;45283;-83
2022/12/01 06:57:36;;;;;;;;;38.00;31.00;;;;;7.68;73.66;101810.91;5034755;28;45233;-82
2022/12/01 07:00:03;;;;;;;;;47.67;39.00;;;;;8.17;73.66;101905.59;5053421;28;45310;-85
2022/12/01 07:02:28;;;;;;;;;38.00;33.75;;;;;7.97;73.52;101875.56;5053788;28;45256;-83
2022/12/01 07:04:53;;;;;;;;;38.00;33.00;;;;;7.72;73.43;101832.13;5035889;28;45100;-81
2022/12/01 07:07:19;;;;;;;;;36.00;32.00;;;;;8.07;73.62;101892.75;5053050;28;45155;-82
2022/12/01 07:09:44;;;;;;;;;44.75;38.00;;;;;7.85;73.43;101860.00;5053681;28;45374;-81
2022/12/01 07:12:09;;;;;;;;;43.75;36.25;;;;;7.62;73.35;101826.22;5053511;28;45072;-83
2022/12/01 07:14:35;;;;;;;;;35.50;33.75;;;;;7.86;73.47;101861.78;5053794;28;45065;-84
2022/12/01 07:17:00;;;;;;;;;38.00;30.00;;;;;7.87;73.46;101878.41;5032167;28;45195;-84
2022/12/01 07:19:25;;;;;;;;;37.00;28.25;;;;;8.33;73.39;101954.63;5041302;28;51686;-83
2022/12/01 07:21:51;;;;;;;;;40.25;33.00;;;;;7.84;73.38;101873.00;5053721;28;45155;-82
2022/12/01 07:24:16;;;;;;;;;34.33;29.33;;;;;8.30;73.40;101967.53;5034936;28;50962;-82
2022/12/01 07:26:42;;;;;;;;;35.25;30.25;;;;;8.24;73.38;101948.00;5053408;28;45087;-85
2022/12/01 07:29:08;;;;;;;;;37.75;31.25;;;;;7.73;73.44;101878.44;5053179;28;45953;-84
2022/12/01 07:31:34;;;;;;;;;32.25;29.75;;;;;7.40;73.25;101817.00;5053118;28;45547;-85
2022/12/01 07:33:59;;;;;;;;;31.00;28.50;;;;;7.77;73.52;101890.00;5034362;28;45160;-83
2022/12/01 07:36:24;;;;;;;;;37.33;31.67;;;;;7.63;73.46;101873.41;5053989;28;45345;-84
2022/12/01 07:38:49;;;;;;;;;39.00;33.67;;;;;7.38;73.67;101836.91;5053522;28;59052;-84
2022/12/01 07:41:18;;;;;;;;;35.67;31.33;;;;;8.19;73.59;101975.63;5053040;28;45247;-84
2022/12/01 07:43:44;;;;;;;;;35.25;31.25;;;;;7.70;73.27;101909.63;5052785;28;45637;-86
2022/12/01 07:46:21;;;;;;;;;33.50;30.75;;;;;8.19;73.54;101983.47;5053105;28;45306;-84
2022/12/01 07:48:47;;;;;;;;;34.00;32.00;;;;;7.89;73.41;101944.84;5049111;28;45119;-85
2022/12/01 07:51:15;;;;;;;;;28.00;24.75;;;;;7.61;73.24;101876.75;5040219;28;45878;-84
2022/12/01 07:53:41;;;;;;;;;42.75;36.50;;;;;7.86;73.15;101935.06;5048412;28;45689;-86
2022/12/01 07:56:07;;;;;;;;;35.25;32.75;;;;;7.74;73.33;101916.88;5045599;28;45248;-86
2022/12/01 07:58:32;;;;;;;;;34.00;29.25;;;;;7.76;73.26;101930.97;5031082;28;46236;-84
2022/12/01 08:01:03;;;;;;;;;37.75;32.50;;;;;7.91;73.44;101953.69;5037024;28;45372;-85
2022/12/01 08:03:29;;;;;;;;;41.50;33.50;;;;;7.72;73.34;101926.31;5024145;28;45543;-85
2022/12/01 08:05:59;;;;;;;;;31.25;28.75;;;;;8.23;73.17;102010.78;5044035;28;44781;-85
2022/12/01 08:08:25;;;;;;;;;36.50;30.25;;;;;7.74;73.07;101929.97;5041962;28;45773;-86
2022/12/01 08:10:51;;;;;;;;;36.75;29.25;;;;;7.54;73.12;101900.66;5046457;28;45512;-86
2022/12/01 08:13:16;;;;;;;;;31.50;26.75;;;;;8.21;73.30;102025.47;5049120;28;45170;-85
2022/12/01 08:15:41;;;;;;;;;33.75;31.50;;;;;7.35;73.16;101870.72;5050215;28;45211;-85
2022/12/01 08:18:07;;;;;;;;;34.00;28.33;;;;;7.65;73.16;101921.53;5048515;28;47681;-82
2022/12/01 08:20:32;;;;;;;;;33.00;28.67;;;;;7.83;73.20;101944.44;5038191;28;45419;-86
2022/12/01 08:23:01;;;;;;;;;38.33;34.00;;;;;8.24;73.36;102023.97;5048209;28;46367;-85
2022/12/01 08:25:27;;;;;;;;;34.25;31.50;;;;;7.95;73.18;101968.81;5049629;28;45405;-82
2022/12/01 08:27:53;;;;;;;;;33.25;29.25;;;;;8.26;73.11;102019.72;5049493;28;46935;-83
2022/12/01 08:30:18;;;;;;;;;43.00;35.50;;;;;8.25;73.25;102006.53;5047627;28;45428;-87
2022/12/01 08:32:44;;;;;;;;;37.75;31.00;;;;;8.33;73.03;102023.66;5043784;28;45319;-88
2022/12/01 08:35:09;;;;;;;;;30.25;28.50;;;;;8.00;73.33;101967.38;5039987;28;45814;-85
2022/12/01 08:37:35;;;;;;;;;33.75;29.50;;;;;7.54;72.86;101878.06;5045312;28;45463;-87
2022/12/01 08:40:00;;;;;;;;;33.33;28.33;;;;;7.87;73.04;101928.13;5043203;28;45296;-87
2022/12/01 08:42:25;;;;;;;;;35.50;29.00;;;;;8.00;72.98;101949.97;5016357;28;45586;-86
2022/12/01 08:44:51;;;;;;;;;30.25;27.75;;;;;7.63;72.85;101883.88;5037129;28;45360;-86
2022/12/01 08:47:16;;;;;;;;;34.00;30.33;;;;;8.41;72.60;102016.28;5031048;28;45573;-88
2022/12/01 08:49:41;;;;;;;;;31.00;27.67;;;;;8.40;72.93;102014.50;5039898;28;50410;-86
2022/12/01 08:52:06;;;;;;;;;34.33;33.00;;;;;8.27;72.93;101995.34;5044663;28;45519;-84
2022/12/01 08:54:32;;;;;;;;;30.67;28.00;;;;;8.35;72.76;102000.16;5045221;28;45294;-86
2022/12/01 08:56:57;;;;;;;;;39.00;27.50;;;;;8.30;72.69;101996.34;5032268;28;45746;-87
2022/12/01 08:59:23;;;;;;;;;36.25;32.75;;;;;7.80;72.75;101918.09;5038099;28;45821;-85
2022/12/01 09:01:51;;;;;;;;;34.50;31.00;;;;;7.75;72.50;101915.16;5036517;28;45599;-87
2022/12/01 09:04:21;;;;;;;;;26.75;24.50;;;;;8.43;72.86;102040.91;5042024;28;45474;-87
2022/12/01 09:06:48;;;;;;;;;28.50;27.25;;;;;7.82;72.63;101912.13;5048342;28;46307;-89
2022/12/01 09:09:17;;;;;;;;;33.75;27.75;;;;;7.95;72.50;101950.47;5038861;28;45337;-84
2022/12/01 09:11:44;;;;;;;;;28.50;26.50;;;;;7.88;72.73;101943.94;5039777;28;45739;-83
2022/12/01 09:14:11;;;;;;;;;28.00;26.00;;;;;8.07;72.66;101961.72;5031799;28;45496;-84
2022/12/01 09:16:37;;;;;;;;;28.75;25.75;;;;;8.42;72.63;101998.06;5029721;28;45504;-85
2022/12/01 09:19:02;;;;;;;;;34.00;26.00;;;;;8.65;72.55;102036.19;5044370;28;45134;-85
2022/12/01 09:21:30;;;;;;;;;36.75;29.25;;;;;8.53;72.32;101996.13;5044629;28;45256;-87
2022/12/01 09:23:55;;;;;;;;;34.50;27.25;;;;;8.72;72.45;102032.25;5038178;28;45126;-83
2022/12/01 09:26:22;;;;;;;;;33.25;27.50;;;;;8.44;72.46;101975.47;5043888;28;47309;-86
2022/12/01 09:28:51;;;;;;;;;36.25;28.75;;;;;8.66;72.49;102008.25;5048059;28;45184;-84
2022/12/01 09:31:17;;;;;;;;;30.75;24.50;;;;;8.36;72.34;101960.06;5048287;28;45346;-85
2022/12/01 09:33:43;;;;;;;;;29.25;24.75;;;;;8.84;72.12;102037.34;5046099;28;45454;-86
2022/12/01 09:36:09;;;;;;;;;35.00;26.25;;;;;8.27;71.89;101944.66;5048590;28;45596;-85
2022/12/01 09:38:36;;;;;;;;;37.00;27.75;;;;;8.41;71.86;101956.94;5042838;28;45637;-88
2022/12/01 09:41:10;;;;;;;;;29.00;24.75;;;;;8.17;71.83;101922.22;5028303;28;45113;-86
2022/12/01 09:43:42;;;;;;;;;29.75;26.00;;;;;8.19;71.90;101931.09;5028279;28;45010;-85
2022/12/01 09:46:15;;;;;;;;;29.25;25.50;;;;;8.70;71.81;102010.28;5027822;28;45659;-87
2022/12/01 09:48:44;;;;;;;;;27.50;23.75;;;;;8.88;72.00;102041.97;5031065;28;45674;-87
2022/12/01 09:51:15;;;;;;;;;29.75;26.50;;;;;8.65;71.75;101996.88;5048288;28;45219;-88
2022/12/01 09:53:41;;;;;;;;;33.75;29.50;;;;;8.72;71.81;102009.56;5048218;28;45112;-87
2022/12/01 09:56:31;;;;;;;;;30.75;28.75;;;;;8.52;71.65;101970.69;5029332;28;47151;-87
2022/12/01 09:59:00;;;;;;;;;26.75;25.00;;;;;8.94;71.58;102048.50;5048269;28;45354;-88
2022/12/01 10:01:33;;;;;;;;;25.25;23.25;;;;;8.99;71.54;102038.28;5048098;28;45287;-89
2022/12/01 10:04:18;;;;;;;;;28.50;21.50;;;;;8.58;71.61;101960.63;5042833;28;45266;-87
2022/12/01 10:06:52;;;;;;;;;29.00;22.50;;;;;8.87;71.26;101988.63;5034509;28;45428;-86
2022/12/01 10:09:29;;;;;;;;;28.25;25.75;;;;;9.14;71.25;102031.34;5047577;28;45218;-88
2022/12/01 10:12:05;;;;;;;;;27.00;23.25;;;;;9.10;71.26;102011.00;5047499;28;45100;-87
2022/12/01 10:14:34;;;;;;;;;27.75;23.00;;;;;9.22;71.08;102019.63;5036755;28;45265;-86
2022/12/01 10:17:18;;;;;;;;;31.25;25.25;;;;;9.25;70.99;102024.13;5009344;28;47491;-89
2022/12/01 10:19:59;;;;;;;;;32.25;26.25;;;;;9.07;70.79;101994.19;5038890;28;45714;-87
2022/12/01 10:22:34;;;;;;;;;28.75;25.00;;;;;9.24;71.14;102024.94;5047864;28;45123;-89
2022/12/01 10:25:15;;;;;;;;;30.75;29.00;;;;;9.24;70.79;102015.34;5047910;28;45313;-85
2022/12/01 10:27:52;;;;;;;;;31.25;27.25;;;;;9.28;70.68;102013.84;5047127;28;45340;-85
2022/12/01 10:30:21;;;;;;;;;30.25;24.25;;;;;8.82;70.64;101942.88;5047237;28;45190;-88
2022/12/01 10:33:07;;;;;;;;;30.25;28.50;;;;;8.68;70.45;101902.72;5047347;28;45169;-84
2022/12/01 10:35:35;;;;;;;;;31.00;27.25;;;;;9.22;70.72;101987.25;5039342;28;45160;-88
2022/12/01 10:38:05;;;;;;;;;32.75;25.00;;;;;9.40;70.43;102014.56;5047270;28;45748;-85
2022/12/01 10:40:34;;;;;;;;;31.00;25.75;;;;;9.28;70.33;101970.13;5045080;28;45136;-85
2022/12/01 10:43:01;;;;;;;;;34.25;27.50;;;;;9.51;70.07;102004.72;5047598;28;45268;-84
2022/12/01 10:45:30;;;;;;;;;29.75;28.75;;;;;9.50;70.08;102016.00;5047500;28;45127;-86
2022/12/01 10:48:19;;;;;;;;;29.50;27.25;;;;;9.49;69.97;102008.94;5046196;28;47364;-86
2022/12/01 10:50:54;;;;;;;;;35.25;31.25;;;;;9.52;70.05;101998.66;5055485;28;45506;-86
2022/12/01 10:53:22;;;;;;;;;33.25;26.75;;;;;9.56;69.96;102000.66;5042648;28;45214;-85
2022/12/01 10:55:50;;;;;;;;;25.50;21.50;;;;;9.64;70.25;101999.34;5046955;28;45156;-86
2022/12/01 10:58:18;;;;;;;;;27.50;24.00;;;;;9.72;69.99;102003.34;5037171;28;47839;-85
2022/12/01 11:00:54;;;;;;;;;31.50;26.75;;;;;9.67;69.93;101978.53;5036790;28;45565;-85
2022/12/01 11:03:24;;;;;;;;;30.25;26.25;;;;;9.65;69.50;101968.75;5067216;28;45186;-86
2022/12/01 11:05:53;;;;;;;;;28.25;26.00;;;;;9.26;69.54;101900.97;5057849;28;45383;-84
2022/12/01 11:08:28;;;;;;;;;26.00;23.75;;;;;9.51;69.56;101923.38;5045573;28;45217;-83
2022/12/01 11:10:54;;;;;;;;;25.75;23.50;;;;;9.90;68.98;101977.25;5047515;28;45570;-88
2022/12/01 11:13:28;;;;;;;;;35.50;28.00;;;;;9.97;69.15;101982.00;5046336;28;45175;-87
2022/12/01 11:15:55;;;;;;;;;28.00;23.75;;;;;9.91;68.97;101959.78;5047137;28;44985;-87
2022/12/01 11:18:31;;;;;;;;;30.25;24.75;;;;;9.62;69.20;101887.22;5046478;28;45211;-85
2022/12/01 11:21:13;;;;;;;;;25.50;22.75;;;;;10.16;68.92;101970.81;5046983;28;45287;-89
2022/12/01 11:23:49;;;;;;;;;30.50;24.75;;;;;10.20;68.98;101971.91;5050582;28;45123;-85
2022/12/01 11:26:37;;;;;;;;;28.00;25.25;;;;;10.13;68.44;101951.34;5050887;28;45190;-87
2022/12/01 11:29:23;;;;;;;;;26.50;24.50;;;;;10.22;68.42;101967.63;5048917;28;46129;-87
2022/12/01 11:31:51;;;;;;;;;36.75;28.50;;;;;10.24;68.61;101964.28;5050364;28;45491;-86